createdAt,value
2019-04-29T00:02:09.256Z,99.60
2019-04-29T00:04:39.763Z,99.70
2019-04-29T00:07:10.301Z,99.50
2019-04-29T00:09:40.733Z,99.40
2019-04-29T00:12:11.202Z,99.60
2019-04-29T00:14:43.281Z,99.70
2019-04-29T00:17:15.321Z,99.60
2019-04-29T00:19:47.461Z,99.70
2019-04-29T00:22:17.938Z,99.80
2019-04-29T00:24:48.377Z,99.80
2019-04-29T00:27:18.772Z,99.70
2019-04-29T00:29:49.277Z,99.70
2019-04-29T00:32:20.648Z,99.70
2019-04-29T00:34:51.140Z,99.60
2019-04-29T00:37:23.243Z,99.60
2019-04-29T00:40:07.708Z,99.50
2019-04-29T00:42:39.749Z,99.60
2019-04-29T00:45:10.495Z,99.60
2019-04-29T00:47:40.926Z,99.60
2019-04-29T00:50:11.600Z,99.50
2019-04-29T00:52:43.113Z,99.60
2019-04-29T00:55:18.146Z,99.60
2019-04-29T00:57:48.578Z,99.70
2019-04-29T01:00:26.998Z,99.80
2019-04-29T01:02:57.731Z,99.70
2019-04-29T01:05:28.198Z,99.80
2019-04-29T01:07:58.640Z,99.90
2019-04-29T01:10:29.042Z,99.80
2019-04-29T01:12:59.540Z,99.80
2019-04-29T01:15:30.006Z,99.80
2019-04-29T01:18:00.836Z,99.90
2019-04-29T01:20:31.232Z,99.80
2019-04-29T01:23:01.675Z,99.80
2019-04-29T01:25:32.070Z,99.90
2019-04-29T01:28:09.867Z,99.90
2019-04-29T01:31:06.047Z,99.90
2019-04-29T01:33:36.544Z,99.90
2019-04-29T01:36:08.657Z,99.90
2019-04-29T01:38:40.060Z,99.90
2019-04-29T01:41:15.050Z,99.90
2019-04-29T01:44:04.315Z,99.90
2019-04-29T01:46:34.713Z,99.90
2019-04-29T01:49:05.590Z,99.90
2019-04-29T01:51:35.993Z,99.90
2019-04-29T01:54:06.611Z,99.90
2019-04-29T01:56:37.068Z,99.90
2019-04-29T01:59:07.512Z,99.90
2019-04-29T02:01:37.971Z,99.90
2019-04-29T02:04:08.477Z,99.90
2019-04-29T02:06:38.939Z,99.90
2019-04-29T02:09:11.082Z,99.90
2019-04-29T02:11:41.546Z,99.90
2019-04-29T02:14:12.065Z,99.90
2019-04-29T02:16:42.496Z,99.90
2019-04-29T02:19:12.925Z,99.90
2019-04-29T02:21:44.965Z,99.90
2019-04-29T02:24:17.146Z,99.90
2019-04-29T02:26:47.545Z,99.90
2019-04-29T02:29:17.987Z,99.90
2019-04-29T02:31:48.458Z,99.90
2019-04-29T02:34:19.069Z,99.90
2019-04-29T02:36:49.646Z,99.90
2019-04-29T02:39:33.949Z,99.90
2019-04-29T02:42:22.306Z,99.90
2019-04-29T02:44:53.441Z,99.90
2019-04-29T02:47:23.877Z,99.90
2019-04-29T02:49:54.277Z,99.90
2019-04-29T02:52:24.714Z,99.90
2019-04-29T02:54:56.748Z,99.90
2019-04-29T02:57:31.613Z,99.90
2019-04-29T03:00:19.859Z,99.90
2019-04-29T03:03:09.480Z,99.90
2019-04-29T03:05:41.552Z,99.90
2019-04-29T03:08:12.006Z,99.90
2019-04-29T03:10:42.472Z,99.90
2019-04-29T03:13:12.918Z,99.90
2019-04-29T03:15:44.651Z,99.90
2019-04-29T03:18:15.164Z,99.90
2019-04-29T03:20:50.079Z,99.90
2019-04-29T03:23:22.276Z,99.90
2019-04-29T03:25:52.749Z,99.90
2019-04-29T03:28:23.275Z,99.90
2019-04-29T03:30:53.742Z,99.90
2019-04-29T03:33:24.646Z,99.90
2019-04-29T03:35:55.224Z,99.90
2019-04-29T03:38:25.824Z,99.90
2019-04-29T03:40:56.373Z,99.90
2019-04-29T03:43:40.831Z,99.90
2019-04-29T03:46:18.700Z,99.90
2019-04-29T03:48:56.162Z,99.90
2019-04-29T03:51:35.191Z,99.90
2019-04-29T03:54:13.141Z,99.90
2019-04-29T03:56:48.574Z,99.90
2019-04-29T03:59:25.617Z,99.90
2019-04-29T04:02:10.427Z,99.90
2019-04-29T04:05:10.905Z,99.90
2019-04-29T04:07:55.344Z,99.90
2019-04-29T04:10:33.708Z,99.90
2019-04-29T04:13:11.555Z,99.90
2019-04-29T04:15:43.404Z,99.90
2019-04-29T04:18:21.543Z,99.90
2019-04-29T04:20:52.200Z,99.90
2019-04-29T04:23:22.598Z,99.90
2019-04-29T04:25:53.180Z,99.90
2019-04-29T04:28:23.575Z,99.90
2019-04-29T04:30:55.416Z,99.90
2019-04-29T04:33:25.812Z,99.90
2019-04-29T04:35:56.253Z,99.90
2019-04-29T04:38:30.660Z,99.90
2019-04-29T04:41:02.737Z,99.90
2019-04-29T04:43:33.130Z,99.90
2019-04-29T04:46:03.880Z,99.90
2019-04-29T04:48:34.277Z,99.90
2019-04-29T04:51:04.784Z,99.90
2019-04-29T04:53:35.179Z,99.90
2019-04-29T04:56:05.697Z,99.90
2019-04-29T04:58:36.099Z,99.70
2019-04-29T05:01:06.550Z,99.90
2019-04-29T05:03:37.019Z,99.70
2019-04-29T05:06:07.449Z,99.60
2019-04-29T05:08:37.844Z,99.80
2019-04-29T05:11:08.286Z,99.50
2019-04-29T05:13:38.686Z,99.10
2019-04-29T05:16:09.140Z,98.90
2019-04-29T05:18:39.534Z,98.10
2019-04-29T05:21:09.970Z,97.90
2019-04-29T05:23:41.766Z,97.20
2019-04-29T05:26:12.293Z,97.70
2019-04-29T05:28:42.697Z,96.70
2019-04-29T05:31:13.135Z,96.60
2019-04-29T05:33:43.526Z,96.80
2019-04-29T05:36:25.091Z,96.60
2019-04-29T05:38:57.125Z,96.60
2019-04-29T05:41:30.237Z,96.40
2019-04-29T05:44:04.032Z,95.80
2019-04-29T05:46:36.110Z,95.90
2019-04-29T05:49:08.987Z,95.60
2019-04-29T05:51:43.927Z,95.30
2019-04-29T05:54:15.968Z,94.30
2019-04-29T05:56:46.406Z,93.50
2019-04-29T05:59:16.808Z,93.40
2019-04-29T06:01:48.907Z,92.60
2019-04-29T06:04:19.399Z,91.60
2019-04-29T06:06:49.842Z,91.50
2019-04-29T06:09:23.343Z,91.30
2019-04-29T06:11:53.778Z,91.30
2019-04-29T06:14:24.231Z,91.10
2019-04-29T06:16:57.738Z,91.10
2019-04-29T06:19:27.205Z,90.90
2019-04-29T06:21:58.143Z,90.10
2019-04-29T06:24:31.671Z,89.70
2019-04-29T06:27:02.201Z,89.50
2019-04-29T06:29:32.674Z,87.80
2019-04-29T06:32:03.212Z,85.40
2019-04-29T06:34:35.526Z,84.30
2019-04-29T06:37:06.354Z,82.90
2019-04-29T06:39:36.998Z,81.90
2019-04-29T06:42:08.007Z,82.10
2019-04-29T06:44:39.697Z,80.40
2019-04-29T06:47:10.285Z,78.70
2019-04-29T06:49:43.490Z,76.40
2019-04-29T06:52:14.001Z,76.80
2019-04-29T06:54:44.832Z,77.50
2019-04-29T06:57:15.310Z,74.10
2019-04-29T06:59:47.478Z,71.40
2019-04-29T07:02:17.860Z,69.00
2019-04-29T07:04:48.323Z,67.50
2019-04-29T07:07:18.790Z,62.70
2019-04-29T07:09:50.300Z,61.30
2019-04-29T07:12:20.702Z,60.70
2019-04-29T07:14:51.175Z,58.90
2019-04-29T07:17:21.572Z,57.60
2019-04-29T07:19:52.022Z,58.00
2019-04-29T07:22:25.868Z,57.10
2019-04-29T07:24:54.610Z,54.70
2019-04-29T07:27:25.029Z,54.80
2019-04-29T07:29:55.466Z,52.10
2019-04-29T07:32:25.880Z,51.50
2019-04-29T07:34:56.316Z,50.90
2019-04-29T07:37:29.742Z,48.60
2019-04-29T07:39:58.868Z,49.30
2019-04-29T07:42:32.338Z,49.40
2019-04-29T07:45:14.742Z,48.00
2019-04-29T07:47:56.218Z,47.80
2019-04-29T07:50:22.298Z,48.30
2019-04-29T07:52:51.317Z,47.20
2019-04-29T07:55:26.104Z,45.20
2019-04-29T07:57:53.929Z,46.80
2019-04-29T08:00:35.463Z,45.80
2019-04-29T08:03:08.344Z,46.80
2019-04-29T08:05:38.849Z,44.30
2019-04-29T08:08:09.247Z,42.90
2019-04-29T08:10:52.563Z,42.90
2019-04-29T08:13:13.404Z,42.80
2019-04-29T08:15:43.845Z,43.10
2019-04-29T08:18:16.267Z,42.70
2019-04-29T08:20:46.383Z,41.80
2019-04-29T08:23:16.849Z,42.60
2019-04-29T08:25:47.292Z,41.70
2019-04-29T08:28:17.694Z,40.30
2019-04-29T08:30:48.124Z,39.30
2019-04-29T08:33:18.530Z,41.10
2019-04-29T08:35:48.966Z,38.20
2019-04-29T08:38:19.364Z,38.80
2019-04-29T08:40:51.573Z,38.50
2019-04-29T08:43:26.596Z,37.70
2019-04-29T08:46:04.485Z,37.40
2019-04-29T08:48:35.853Z,37.50
2019-04-29T08:51:06.289Z,37.00
2019-04-29T08:53:36.679Z,36.50
2019-04-29T08:56:10.168Z,34.90
2019-04-29T08:58:39.586Z,35.20
2019-04-29T09:01:10.102Z,35.10
2019-04-29T09:03:41.110Z,35.60
2019-04-29T09:06:11.881Z,34.20
2019-04-29T09:08:54.186Z,35.40
2019-04-29T09:11:14.621Z,34.70
2019-04-29T09:13:44.996Z,34.40
2019-04-29T09:16:15.431Z,34.90
2019-04-29T09:18:45.950Z,34.10
2019-04-29T09:21:16.404Z,35.00
2019-04-29T09:23:46.879Z,32.90
2019-04-29T09:26:33.542Z,32.80
2019-04-29T09:29:06.019Z,33.20
2019-04-29T09:31:36.523Z,32.60
2019-04-29T09:34:07.123Z,33.50
2019-04-29T09:36:37.593Z,34.10
2019-04-29T09:39:08.158Z,33.60
2019-04-29T09:41:40.912Z,34.70
2019-04-29T09:44:13.911Z,34.30
2019-04-29T09:46:44.526Z,35.00
2019-04-29T09:49:15.218Z,35.70
2019-04-29T09:51:45.884Z,35.70
2019-04-29T09:54:16.395Z,35.70
2019-04-29T09:56:46.793Z,35.30
2019-04-29T09:59:31.124Z,35.30
2019-04-29T10:02:03.266Z,34.90
2019-04-29T10:04:35.620Z,32.90
2019-04-29T10:07:07.689Z,32.20
2019-04-29T10:09:39.097Z,33.10
2019-04-29T10:12:09.632Z,33.20
2019-04-29T10:14:40.079Z,32.30
2019-04-29T10:17:24.108Z,31.70
2019-04-29T10:19:56.590Z,35.00
2019-04-29T10:22:27.222Z,33.60
2019-04-29T10:24:57.654Z,32.70
2019-04-29T10:27:28.115Z,31.70
2019-04-29T10:29:58.889Z,32.50
2019-04-29T10:32:29.285Z,32.00
2019-04-29T10:35:03.780Z,30.50
2019-04-29T10:37:32.724Z,31.70
2019-04-29T10:40:13.424Z,32.60
2019-04-29T10:42:45.538Z,33.60
2019-04-29T10:45:40.442Z,32.50
2019-04-29T10:48:17.503Z,32.00
2019-04-29T10:50:52.132Z,31.90
2019-04-29T10:53:21.822Z,32.60
2019-04-29T10:55:52.324Z,33.60
2019-04-29T10:58:30.211Z,33.70
2019-04-29T11:01:16.218Z,31.80
2019-04-29T11:03:46.863Z,33.70
2019-04-29T11:06:17.377Z,34.10
2019-04-29T11:08:49.542Z,33.00
2019-04-29T11:11:23.253Z,32.10
2019-04-29T11:13:52.302Z,33.30
2019-04-29T11:16:29.461Z,33.50
2019-04-29T11:19:00.161Z,33.20
2019-04-29T11:21:29.547Z,33.30
2019-04-29T11:24:04.840Z,35.30
2019-04-29T11:26:44.744Z,34.50
2019-04-29T11:29:15.300Z,34.20
2019-04-29T11:31:49.124Z,34.80
2019-04-29T11:34:26.447Z,34.50
2019-04-29T11:36:56.944Z,34.10
2019-04-29T11:39:27.382Z,34.80
2019-04-29T11:41:59.678Z,35.10
2019-04-29T11:44:31.952Z,35.00
2019-04-29T11:47:02.492Z,36.00
2019-04-29T11:49:34.599Z,35.00
2019-04-29T11:52:09.578Z,34.70
2019-04-29T11:54:37.305Z,36.30
2019-04-29T11:57:09.400Z,36.70
2019-04-29T11:59:50.290Z,36.70
2019-04-29T12:02:44.783Z,37.10
2019-04-29T12:05:08.599Z,38.00
2019-04-29T12:07:38.102Z,37.30
2019-04-29T12:10:10.381Z,37.60
2019-04-29T12:12:43.659Z,35.80
2019-04-29T12:15:30.610Z,36.70
2019-04-29T12:18:18.670Z,36.90
2019-04-29T12:21:06.627Z,35.80
2019-04-29T12:23:37.106Z,35.90
2019-04-29T12:26:08.156Z,35.80
2019-04-29T12:28:42.711Z,36.30
2019-04-29T12:31:21.547Z,35.60
2019-04-29T12:34:09.966Z,36.40
2019-04-29T12:36:54.830Z,35.30
2019-04-29T12:39:42.382Z,37.50
2019-04-29T12:41:53.888Z,36.30
2019-04-29T12:44:34.966Z,37.80
2019-04-29T12:46:59.690Z,37.70
2019-04-29T12:49:30.128Z,37.50
2019-04-29T12:52:01.440Z,38.40
2019-04-29T12:54:34.347Z,36.80
2019-04-29T12:57:05.009Z,36.50
2019-04-29T12:59:37.339Z,36.50
2019-04-29T13:02:24.496Z,36.80
2019-04-29T13:05:09.414Z,38.80
2019-04-29T13:07:52.361Z,36.60
2019-04-29T13:10:27.163Z,38.50
2019-04-29T13:12:58.665Z,38.50
2019-04-29T13:15:43.932Z,38.00
2019-04-29T13:18:23.437Z,37.70
2019-04-29T13:20:54.231Z,37.80
2019-04-29T13:23:34.932Z,38.00
2019-04-29T13:25:57.891Z,37.70
2019-04-29T13:28:34.350Z,39.10
2019-04-29T13:31:02.541Z,39.70
2019-04-29T13:33:32.944Z,39.20
2019-04-29T13:36:03.745Z,38.30
2019-04-29T13:38:34.455Z,38.60
2019-04-29T13:41:13.403Z,40.50
2019-04-29T13:43:39.351Z,38.20
2019-04-29T13:46:17.753Z,38.50
2019-04-29T13:49:13.221Z,39.30
2019-04-29T13:51:39.613Z,38.60
2019-04-29T13:54:10.154Z,38.70
2019-04-29T13:56:55.479Z,39.50
2019-04-29T13:59:14.380Z,40.10
2019-04-29T14:02:00.251Z,39.80
2019-04-29T14:04:28.880Z,40.10
2019-04-29T14:06:59.440Z,41.30
2019-04-29T14:09:29.858Z,40.60
2019-04-29T14:12:19.946Z,39.80
2019-04-29T14:14:33.359Z,40.50
2019-04-29T14:17:17.421Z,40.30
2019-04-29T14:19:43.238Z,41.50
2019-04-29T14:22:21.381Z,41.60
2019-04-29T14:24:40.652Z,42.40
2019-04-29T14:27:24.699Z,42.00
2019-04-29T14:29:46.139Z,42.40
2019-04-29T14:32:18.341Z,42.10
2019-04-29T14:34:53.438Z,42.70
2019-04-29T14:37:25.474Z,43.50
2019-04-29T14:39:57.259Z,43.60
2019-04-29T14:42:41.462Z,43.70
2019-04-29T14:45:13.773Z,44.70
2019-04-29T14:47:45.989Z,45.10
2019-04-29T14:50:20.508Z,44.30
2019-04-29T14:52:49.346Z,44.30
2019-04-29T14:55:25.045Z,45.10
2019-04-29T14:57:53.180Z,44.90
2019-04-29T15:00:41.840Z,45.70
2019-04-29T15:03:12.949Z,45.60
2019-04-29T15:05:43.404Z,45.80
2019-04-29T15:08:13.895Z,46.40
2019-04-29T15:10:46.173Z,45.50
2019-04-29T15:13:21.138Z,46.00
2019-04-29T15:16:04.469Z,45.50
2019-04-29T15:18:47.504Z,46.50
2019-04-29T15:21:09.506Z,46.40
2019-04-29T15:23:40.134Z,47.20
2019-04-29T15:26:10.632Z,46.30
2019-04-29T15:28:52.534Z,46.90
2019-04-29T15:31:24.877Z,47.00
2019-04-29T15:33:55.272Z,48.20
2019-04-29T15:36:25.781Z,47.70
2019-04-29T15:39:09.007Z,47.70
2019-04-29T15:41:31.015Z,47.00
2019-04-29T15:44:07.695Z,48.70
2019-04-29T15:46:45.621Z,48.50
2019-04-29T15:49:06.622Z,48.80
2019-04-29T15:51:37.144Z,48.60
2019-04-29T15:54:09.214Z,49.00
2019-04-29T15:56:40.942Z,48.40
2019-04-29T15:59:11.410Z,48.30
2019-04-29T16:01:42.501Z,48.60
2019-04-29T16:04:20.848Z,48.30
2019-04-29T16:06:51.487Z,49.50
2019-04-29T16:12:14.377Z,50.50
2019-04-29T16:14:43.135Z,49.50
2019-04-29T16:17:13.899Z,50.10
2019-04-29T16:19:44.407Z,49.60
2019-04-29T16:22:19.995Z,50.20
2019-04-29T16:24:46.970Z,50.90
2019-04-29T16:27:17.367Z,50.70
2019-04-29T16:29:51.690Z,51.20
2019-04-29T16:32:22.789Z,52.00
2019-04-29T16:34:53.230Z,51.40
2019-04-29T16:37:24.937Z,52.60
2019-04-29T16:39:59.750Z,53.70
2019-04-29T16:42:33.975Z,53.40
2019-04-29T16:45:11.977Z,53.20
2019-04-29T16:47:47.545Z,52.00
2019-04-29T16:50:14.934Z,53.00
2019-04-29T16:52:45.430Z,53.10
2019-04-29T16:55:16.463Z,53.40
2019-04-29T16:57:49.193Z,54.40
2019-04-29T17:00:21.764Z,54.40
2019-04-29T17:02:53.939Z,54.20
2019-04-29T17:05:24.402Z,53.70
2019-04-29T17:07:56.616Z,54.10
2019-04-29T17:10:28.863Z,54.40
2019-04-29T17:12:59.383Z,54.70
2019-04-29T17:15:30.469Z,54.70
2019-04-29T17:18:01.144Z,54.10
2019-04-29T17:20:31.650Z,55.00
2019-04-29T17:23:02.065Z,55.60
2019-04-29T17:25:32.565Z,56.10
2019-04-29T17:28:11.868Z,56.80
2019-04-29T17:30:57.778Z,55.60
2019-04-29T17:33:31.256Z,56.40
2019-04-29T17:35:15.560Z,49.50
2019-04-29T17:36:02.200Z,56.30
2019-04-29T17:38:33.039Z,57.70
2019-04-29T17:41:03.482Z,57.10
2019-04-29T17:43:50.679Z,57.20
2019-04-29T17:46:38.393Z,57.10
2019-04-29T17:49:22.142Z,58.40
2019-04-29T17:51:51.567Z,58.90
2019-04-29T17:54:26.659Z,59.70
2019-04-29T17:57:25.591Z,60.70
2019-04-29T18:00:00.620Z,61.10
2019-04-29T18:02:43.095Z,60.50
2019-04-29T18:05:28.133Z,62.60
2019-04-29T18:08:12.685Z,62.70
2019-04-29T18:10:45.822Z,64.60
2019-04-29T18:13:19.066Z,64.10
2019-04-29T18:16:00.766Z,62.70
2019-04-29T18:18:46.547Z,61.60
2019-04-29T18:21:20.760Z,63.30
2019-04-29T18:23:59.247Z,61.40
2019-04-29T18:26:30.122Z,62.40
2019-04-29T18:29:03.457Z,61.70
2019-04-29T18:31:35.548Z,61.90
2019-04-29T18:34:05.827Z,60.90
2019-04-29T18:36:36.256Z,61.10
2019-04-29T18:39:10.185Z,62.80
2019-04-29T18:41:40.986Z,61.50
2019-04-29T18:44:18.909Z,62.50
2019-04-29T18:46:52.739Z,63.40
2019-04-29T18:49:15.988Z,63.40
2019-04-29T18:51:46.595Z,64.30
2019-04-29T18:54:17.161Z,63.80
2019-04-29T18:56:47.591Z,63.80
2019-04-29T18:59:19.838Z,64.30
2019-04-29T19:01:50.125Z,64.80
2019-04-29T19:04:35.516Z,64.50
2019-04-29T19:07:07.203Z,64.20
2019-04-29T19:09:39.238Z,64.90
2019-04-29T19:12:09.749Z,66.20
2019-04-29T19:14:41.779Z,65.10
2019-04-29T19:17:12.428Z,66.50
2019-04-29T19:19:44.898Z,66.00
2019-04-29T19:22:16.744Z,66.40
2019-04-29T19:24:48.240Z,66.60
2019-04-29T19:27:18.828Z,66.40
2019-04-29T19:29:49.360Z,68.40
2019-04-29T19:32:23.226Z,67.00
2019-04-29T19:34:55.023Z,68.10
2019-04-29T19:37:25.378Z,67.70
2019-04-29T19:39:59.498Z,68.50
2019-04-29T19:42:31.399Z,68.00
2019-04-29T19:45:01.158Z,68.60
2019-04-29T19:47:31.578Z,68.20
2019-04-29T19:50:02.399Z,69.60
2019-04-29T19:52:34.836Z,70.00
2019-04-29T19:55:07.172Z,70.20
2019-04-29T19:57:42.369Z,69.90
2019-04-29T20:00:10.921Z,71.00
2019-04-29T20:02:49.430Z,70.40
2019-04-29T20:05:31.562Z,70.50
2019-04-29T20:07:59.368Z,71.30
2019-04-29T20:10:31.419Z,71.20
2019-04-29T20:13:02.809Z,71.20
2019-04-29T20:15:37.622Z,71.20
2019-04-29T20:18:23.592Z,71.40
2019-04-29T20:21:08.087Z,71.80
2019-04-29T20:23:37.032Z,71.20
2019-04-29T20:26:13.808Z,72.10
2019-04-29T20:28:37.388Z,72.00
2019-04-29T20:31:16.265Z,72.20
2019-04-29T20:33:42.146Z,72.50
2019-04-29T20:36:13.802Z,73.20
2019-04-29T20:38:45.447Z,73.20
2019-04-29T20:41:18.111Z,73.30
2019-04-29T20:43:48.510Z,73.20
2019-04-29T20:46:19.477Z,73.50
2019-04-29T20:48:54.415Z,73.90
2019-04-29T20:51:23.275Z,73.80
2019-04-29T20:53:56.310Z,74.30
2019-04-29T20:56:29.813Z,74.10
2019-04-29T20:59:02.089Z,74.40
2019-04-29T21:01:43.106Z,74.40
2019-04-29T21:04:11.594Z,74.40
2019-04-29T21:06:57.557Z,75.10
2019-04-29T21:09:16.478Z,75.10
2019-04-29T21:12:00.185Z,75.50
2019-04-29T21:14:38.138Z,75.40
2019-04-29T21:17:11.192Z,75.70
2019-04-29T21:19:42.199Z,75.30
2019-04-29T21:22:23.464Z,75.80
2019-04-29T21:24:53.939Z,75.50
2019-04-29T21:27:26.010Z,76.30
2019-04-29T21:29:57.224Z,76.10
2019-04-29T21:32:30.553Z,76.30
2019-04-29T21:35:02.055Z,76.10
2019-04-29T21:37:46.678Z,76.50
2019-04-29T21:40:20.301Z,76.90
2019-04-29T21:42:52.717Z,77.00
2019-04-29T21:45:23.305Z,76.80
2019-04-29T21:47:55.303Z,77.60
2019-04-29T21:50:27.155Z,77.80
2019-04-29T21:53:02.128Z,78.00
2019-04-29T21:55:30.206Z,79.00
2019-04-29T21:58:00.835Z,78.40
2019-04-29T22:00:31.425Z,78.40
2019-04-29T22:03:05.324Z,78.70
2019-04-29T22:05:35.777Z,78.70
2019-04-29T22:08:06.347Z,78.70
2019-04-29T22:10:37.410Z,79.00
2019-04-29T22:13:08.677Z,79.50
2019-04-29T22:15:42.479Z,80.10
2019-04-29T22:18:13.994Z,80.30
2019-04-29T22:20:44.745Z,80.40
2019-04-29T22:23:17.232Z,80.70
2019-04-29T22:25:47.542Z,81.10
2019-04-29T22:28:19.833Z,81.30
2019-04-29T22:30:54.774Z,81.70
2019-04-29T22:33:25.235Z,82.30
2019-04-29T22:35:55.893Z,82.40
2019-04-29T22:38:26.475Z,82.90
2019-04-29T22:40:58.548Z,83.00
2019-04-29T22:43:30.780Z,83.20
2019-04-29T22:46:04.815Z,83.20
2019-04-29T22:48:35.406Z,83.50
2019-04-29T22:51:10.083Z,83.30
2019-04-29T22:53:40.035Z,84.20
2019-04-29T22:56:14.257Z,84.80
2019-04-29T22:58:43.787Z,84.90
2019-04-29T23:01:15.653Z,85.30
2019-04-29T23:03:47.359Z,85.70
2019-04-29T23:06:17.742Z,85.70
2019-04-29T23:08:48.167Z,86.20
2019-04-29T23:11:18.604Z,87.00
2019-04-29T23:13:49.164Z,87.60
2019-04-29T23:16:19.570Z,87.50
2019-04-29T23:18:50.166Z,88.00
2019-04-29T23:21:37.518Z,88.40
2019-04-29T23:24:19.811Z,88.50
2019-04-29T23:26:50.195Z,89.30
2019-04-29T23:29:20.620Z,89.80
2019-04-29T23:31:51.078Z,89.40
2019-04-29T23:34:25.824Z,90.00
2019-04-29T23:36:53.650Z,89.80
2019-04-29T23:39:24.891Z,89.50
2019-04-29T23:41:55.509Z,89.20
2019-04-29T23:44:26.014Z,89.40
2019-04-29T23:46:56.453Z,89.60
2019-04-29T23:49:26.888Z,89.40
2019-04-29T23:51:57.295Z,89.20
2019-04-29T23:54:28.556Z,89.70
2019-04-29T23:57:03.606Z,89.90
2019-04-29T23:59:54.558Z,90.10
